createdAt,value
2023-01-19T00:00:37.053Z,-0.40
2023-01-19T00:03:04.681Z,-0.40
2023-01-19T00:05:31.928Z,-0.50
2023-01-19T00:08:14.639Z,-0.50
2023-01-19T00:10:52.147Z,-0.50
2023-01-19T00:13:21.515Z,-0.50
2023-01-19T00:15:50.538Z,-0.50
2023-01-19T00:18:17.237Z,-0.50
2023-01-19T00:20:48.816Z,-0.50
2023-01-19T00:23:16.309Z,-0.50
2023-01-19T00:25:47.200Z,-0.60
2023-01-19T00:28:16.126Z,-0.60
2023-01-19T00:30:43.645Z,-0.50
2023-01-19T00:33:16.171Z,-0.50
2023-01-19T00:35:45.402Z,-0.50
2023-01-19T00:38:12.547Z,-0.50
2023-01-19T00:40:39.298Z,-0.40
2023-01-19T00:43:05.922Z,-0.40
2023-01-19T00:45:33.412Z,-0.40
2023-01-19T00:48:00.094Z,-0.40
2023-01-19T00:50:28.800Z,-0.40
2023-01-19T00:53:01.232Z,-0.40
2023-01-19T00:55:28.648Z,-0.30
2023-01-19T00:57:55.342Z,-0.30
2023-01-19T01:00:22.858Z,-0.30
2023-01-19T01:02:52.352Z,-0.30
2023-01-19T01:05:22.384Z,-0.20
2023-01-19T01:07:50.517Z,-0.20
2023-01-19T01:10:23.688Z,-0.20
2023-01-19T01:12:55.169Z,-0.20
2023-01-19T01:15:27.004Z,-0.10
2023-01-19T01:17:53.987Z,-0.10
2023-01-19T01:20:27.817Z,-0.10
2023-01-19T01:22:57.424Z,-0.10
2023-01-19T01:25:26.194Z,-0.20
2023-01-19T01:27:53.868Z,-0.20
2023-01-19T01:30:21.446Z,-0.10
2023-01-19T01:32:48.969Z,-0.20
2023-01-19T01:35:18.833Z,-0.20
2023-01-19T01:37:45.461Z,-0.20
2023-01-19T01:40:16.398Z,-0.30
2023-01-19T01:42:43.602Z,-0.30
2023-01-19T01:45:36.343Z,-0.30
2023-01-19T01:48:27.190Z,-0.30
2023-01-19T01:51:18.629Z,-0.30
2023-01-19T01:54:13.018Z,-0.30
2023-01-19T01:56:46.663Z,-0.20
2023-01-19T01:59:25.954Z,-0.20
2023-01-19T02:02:16.871Z,-0.10
2023-01-19T02:04:50.383Z,-0.10
2023-01-19T02:07:45.273Z,-0.10
2023-01-19T02:10:30.608Z,0.00
2023-01-19T02:13:16.646Z,0.00
2023-01-19T02:15:43.288Z,0.10
2023-01-19T02:18:10.850Z,0.10
2023-01-19T02:20:43.038Z,0.10
2023-01-19T02:23:17.262Z,0.10
2023-01-19T02:25:44.288Z,0.10
2023-01-19T02:28:11.751Z,0.10
2023-01-19T02:30:41.120Z,0.10
2023-01-19T02:33:07.817Z,0.10
2023-01-19T02:35:39.505Z,0.10
2023-01-19T02:38:07.852Z,0.00
2023-01-19T02:40:38.491Z,0.10
2023-01-19T02:43:06.361Z,0.10
2023-01-19T02:45:33.052Z,0.10
2023-01-19T02:47:59.685Z,0.10
2023-01-19T02:50:49.205Z,0.10
2023-01-19T02:53:37.473Z,0.20
2023-01-19T02:56:39.504Z,0.20
2023-01-19T02:59:32.758Z,0.20
2023-01-19T03:02:08.988Z,0.10
2023-01-19T03:05:04.940Z,0.20
2023-01-19T03:07:52.940Z,0.20
2023-01-19T03:10:36.221Z,0.20
2023-01-19T03:13:05.830Z,0.20
2023-01-19T03:15:41.343Z,0.30
2023-01-19T03:18:10.596Z,0.20
2023-01-19T03:20:40.089Z,0.30
2023-01-19T03:23:11.276Z,0.30
2023-01-19T03:25:42.458Z,0.40
2023-01-19T03:28:14.205Z,0.40
2023-01-19T03:30:46.537Z,0.40
2023-01-19T03:33:41.856Z,0.40
2023-01-19T03:36:16.571Z,0.40
2023-01-19T03:38:46.116Z,0.40
2023-01-19T03:41:17.354Z,0.40
2023-01-19T03:43:46.091Z,0.30
2023-01-19T03:46:17.349Z,0.30
2023-01-19T03:48:47.735Z,0.20
2023-01-19T03:51:14.931Z,0.20
2023-01-19T03:53:41.944Z,0.20
2023-01-19T03:56:27.101Z,0.20
2023-01-19T03:58:56.989Z,0.10
2023-01-19T04:01:24.907Z,0.10
2023-01-19T04:03:55.031Z,0.10
2023-01-19T04:06:24.357Z,0.10
2023-01-19T04:08:51.881Z,0.10
2023-01-19T04:11:18.911Z,0.00
2023-01-19T04:13:45.551Z,0.00
2023-01-19T04:16:20.489Z,0.00
2023-01-19T04:18:47.928Z,0.00
2023-01-19T04:21:16.799Z,0.00
2023-01-19T04:23:44.396Z,0.00
2023-01-19T04:26:13.657Z,0.00
2023-01-19T04:28:40.445Z,0.00
2023-01-19T04:31:07.717Z,0.00
2023-01-19T04:33:37.082Z,0.00
2023-01-19T04:36:04.161Z,0.00
2023-01-19T04:38:35.367Z,0.10
2023-01-19T04:41:01.993Z,0.10
2023-01-19T04:43:31.309Z,0.10
2023-01-19T04:45:58.663Z,0.10
2023-01-19T04:48:25.509Z,0.10
2023-01-19T04:50:54.714Z,0.20
2023-01-19T04:53:21.466Z,0.10
2023-01-19T04:55:52.405Z,0.10
2023-01-19T04:58:19.067Z,0.10
2023-01-19T05:00:45.846Z,0.10
2023-01-19T05:03:15.085Z,0.10
2023-01-19T05:05:41.755Z,0.20
2023-01-19T05:08:08.491Z,0.20
2023-01-19T05:10:36.520Z,0.20
2023-01-19T05:13:05.550Z,0.10
2023-01-19T05:15:32.221Z,0.20
2023-01-19T05:18:03.472Z,0.10
2023-01-19T05:20:30.170Z,0.20
2023-01-19T05:22:59.631Z,0.10
2023-01-19T05:25:26.456Z,0.20
2023-01-19T05:27:53.147Z,0.10
2023-01-19T05:30:19.848Z,0.10
2023-01-19T05:32:47.023Z,0.20
2023-01-19T05:35:18.184Z,0.20
2023-01-19T05:37:48.760Z,0.10
2023-01-19T05:40:15.754Z,0.10
2023-01-19T05:42:44.930Z,0.10
2023-01-19T05:45:12.465Z,0.10
2023-01-19T05:47:39.925Z,0.10
2023-01-19T05:50:07.520Z,0.10
2023-01-19T05:52:34.135Z,0.20
2023-01-19T05:55:00.749Z,0.20
2023-01-19T05:57:27.381Z,0.20
2023-01-19T05:59:54.060Z,0.20
2023-01-19T06:02:28.550Z,0.20
2023-01-19T06:04:56.045Z,0.30
2023-01-19T06:07:24.411Z,0.30
2023-01-19T06:09:53.968Z,0.30
2023-01-19T06:12:20.608Z,0.30
2023-01-19T06:14:47.267Z,0.30
2023-01-19T06:17:13.903Z,0.30
2023-01-19T06:19:40.822Z,0.40
2023-01-19T06:22:07.999Z,0.30
2023-01-19T06:24:34.759Z,0.30
2023-01-19T06:27:01.430Z,0.30
2023-01-19T06:29:29.405Z,0.20
2023-01-19T06:31:56.453Z,0.20
2023-01-19T06:34:27.028Z,0.30
2023-01-19T06:36:53.847Z,0.20
2023-01-19T06:39:20.594Z,0.20
2023-01-19T06:41:47.463Z,0.20
2023-01-19T06:44:14.257Z,0.20
2023-01-19T06:46:43.388Z,0.20
2023-01-19T06:49:10.090Z,0.20
2023-01-19T06:51:36.742Z,0.20
2023-01-19T06:54:03.492Z,0.20
2023-01-19T06:56:35.127Z,0.20
2023-01-19T06:59:01.903Z,0.20
2023-01-19T07:01:28.620Z,0.20
2023-01-19T07:03:55.330Z,0.20
2023-01-19T07:06:22.128Z,0.20
2023-01-19T07:08:48.844Z,0.20
2023-01-19T07:11:26.012Z,0.10
2023-01-19T07:13:57.482Z,0.10
2023-01-19T07:16:24.566Z,0.10
2023-01-19T07:18:53.961Z,0.10
2023-01-19T07:21:21.698Z,0.20
2023-01-19T07:23:49.788Z,0.20
2023-01-19T07:26:21.346Z,0.20
2023-01-19T07:28:48.904Z,0.20
2023-01-19T07:31:16.029Z,0.20
2023-01-19T07:33:42.841Z,0.20
2023-01-19T07:36:10.005Z,0.30
2023-01-19T07:38:36.862Z,0.30
2023-01-19T07:41:09.148Z,0.30
2023-01-19T07:43:38.038Z,0.30
2023-01-19T07:46:08.327Z,0.30
2023-01-19T07:48:37.374Z,0.30
2023-01-19T07:51:10.958Z,0.30
2023-01-19T07:53:39.942Z,0.30
2023-01-19T07:56:09.406Z,0.30
2023-01-19T07:58:36.095Z,0.30
2023-01-19T08:01:07.888Z,0.30
2023-01-19T08:03:39.465Z,0.30
2023-01-19T08:06:07.225Z,0.30
2023-01-19T08:08:34.331Z,0.40
2023-01-19T08:11:01.124Z,0.40
2023-01-19T08:13:30.507Z,0.50
2023-01-19T08:15:57.620Z,0.50
2023-01-19T08:18:26.514Z,0.50
2023-01-19T08:20:53.429Z,0.50
2023-01-19T08:23:22.592Z,0.50
2023-01-19T08:25:49.334Z,0.50
2023-01-19T08:28:17.119Z,0.60
2023-01-19T08:30:53.999Z,0.60
2023-01-19T08:33:23.104Z,0.50
2023-01-19T08:35:52.396Z,0.50
2023-01-19T08:38:19.718Z,0.50
2023-01-19T08:40:46.422Z,0.50
2023-01-19T08:43:16.027Z,0.50
2023-01-19T08:45:49.109Z,0.50
2023-01-19T08:48:17.821Z,0.50
2023-01-19T08:50:47.440Z,0.60
2023-01-19T08:53:14.830Z,0.60
2023-01-19T08:55:44.245Z,0.50
2023-01-19T08:58:11.045Z,0.50
2023-01-19T09:00:39.292Z,0.50
2023-01-19T09:03:07.609Z,0.50
2023-01-19T09:05:37.394Z,0.60
2023-01-19T09:08:08.080Z,0.60
2023-01-19T09:10:40.552Z,0.60
2023-01-19T09:13:11.453Z,0.60
2023-01-19T09:15:39.581Z,0.60
2023-01-19T09:18:10.282Z,0.60
2023-01-19T09:20:39.075Z,0.70
2023-01-19T09:23:06.403Z,0.70
2023-01-19T09:25:33.232Z,0.70
2023-01-19T09:28:00.657Z,0.80
2023-01-19T09:30:27.955Z,0.80
2023-01-19T09:32:55.105Z,0.80
2023-01-19T09:35:21.828Z,0.80
2023-01-19T09:37:48.753Z,0.80
2023-01-19T09:40:18.081Z,0.80
2023-01-19T09:42:57.859Z,0.90
2023-01-19T09:45:56.966Z,0.90
2023-01-19T09:48:29.930Z,0.90
2023-01-19T09:50:59.615Z,1.00
2023-01-19T09:53:43.415Z,1.00
2023-01-19T09:56:17.521Z,1.10
2023-01-19T09:58:47.042Z,1.20
2023-01-19T10:01:35.162Z,1.40
2023-01-19T10:04:26.286Z,1.50
2023-01-19T10:06:59.795Z,1.60
2023-01-19T10:09:47.721Z,1.60
2023-01-19T10:12:40.148Z,2.00
2023-01-19T10:15:25.295Z,2.10
2023-01-19T10:18:17.708Z,2.00
2023-01-19T10:20:54.757Z,1.80
2023-01-19T10:23:58.638Z,1.70
2023-01-19T10:26:33.331Z,1.50
2023-01-19T10:29:26.263Z,1.40
2023-01-19T10:32:04.109Z,1.40
2023-01-19T10:34:30.805Z,1.40
2023-01-19T10:37:04.784Z,1.40
2023-01-19T10:39:31.832Z,1.60
2023-01-19T10:42:02.345Z,1.70
2023-01-19T10:44:34.992Z,1.80
2023-01-19T10:47:02.214Z,1.80
2023-01-19T10:49:35.689Z,2.40
2023-01-19T10:52:06.142Z,2.80
2023-01-19T10:54:36.299Z,2.70
2023-01-19T10:57:09.108Z,2.50
2023-01-19T10:59:38.688Z,2.40
2023-01-19T11:02:22.772Z,2.30
2023-01-19T11:04:53.893Z,2.20
2023-01-19T11:07:23.675Z,2.20
2023-01-19T11:10:17.837Z,2.10
2023-01-19T11:13:01.392Z,2.00
2023-01-19T11:15:34.705Z,2.00
2023-01-19T11:18:07.919Z,2.00
2023-01-19T11:20:50.752Z,2.00
2023-01-19T11:23:42.044Z,1.90
2023-01-19T11:26:24.340Z,1.90
2023-01-19T11:28:54.653Z,1.90
2023-01-19T11:31:27.576Z,1.80
2023-01-19T11:34:06.320Z,1.80
2023-01-19T11:36:36.558Z,1.90
2023-01-19T11:39:23.531Z,1.90
2023-01-19T11:41:56.128Z,1.80
2023-01-19T11:44:31.897Z,1.90
2023-01-19T11:47:12.398Z,1.80
2023-01-19T11:49:47.850Z,1.80
2023-01-19T11:52:36.468Z,1.80
2023-01-19T11:55:19.951Z,1.90
2023-01-19T11:57:54.209Z,2.00
2023-01-19T12:00:40.406Z,2.10
2023-01-19T12:03:34.725Z,2.20
2023-01-19T12:06:04.489Z,2.30
2023-01-19T12:08:39.384Z,2.30
2023-01-19T12:11:08.770Z,2.20
2023-01-19T12:13:36.303Z,2.20
2023-01-19T12:16:05.776Z,2.10
2023-01-19T12:18:46.850Z,2.10
2023-01-19T12:21:13.598Z,2.10
2023-01-19T12:23:56.498Z,2.10
2023-01-19T12:26:30.637Z,2.00
2023-01-19T12:29:31.633Z,2.00
2023-01-19T12:32:13.288Z,2.00
2023-01-19T12:34:44.043Z,2.10
2023-01-19T12:37:35.867Z,2.00
2023-01-19T12:40:31.318Z,2.10
2023-01-19T12:43:04.040Z,2.00
2023-01-19T12:45:36.211Z,2.00
2023-01-19T12:48:05.028Z,2.00
2023-01-19T12:50:37.863Z,2.10
2023-01-19T12:53:15.866Z,2.40
2023-01-19T12:55:46.656Z,3.40
2023-01-19T12:58:21.489Z,4.60
2023-01-19T13:00:50.311Z,5.60
2023-01-19T13:03:17.113Z,6.30
2023-01-19T13:05:43.950Z,6.70
2023-01-19T13:08:14.202Z,7.30
2023-01-19T13:11:02.819Z,7.70
2023-01-19T13:14:07.674Z,8.00
2023-01-19T13:16:49.733Z,8.20
2023-01-19T13:19:21.766Z,8.50
2023-01-19T13:21:49.589Z,7.80
2023-01-19T13:24:22.311Z,7.70
2023-01-19T13:26:51.957Z,7.30
2023-01-19T13:29:33.774Z,6.80
2023-01-19T13:32:04.266Z,7.10
2023-01-19T13:34:44.024Z,7.70
2023-01-19T13:37:23.420Z,8.30
2023-01-19T13:39:53.355Z,8.40
2023-01-19T13:42:39.941Z,7.90
2023-01-19T13:45:37.858Z,7.80
2023-01-19T13:48:15.726Z,8.20
2023-01-19T13:50:44.471Z,8.00
2023-01-19T13:53:23.555Z,7.50
2023-01-19T13:56:17.186Z,6.70
2023-01-19T13:58:56.782Z,6.00
2023-01-19T14:01:29.410Z,5.40
2023-01-19T14:03:57.581Z,5.00
2023-01-19T14:06:34.082Z,4.70
2023-01-19T14:09:16.637Z,4.30
2023-01-19T14:12:03.780Z,4.00
2023-01-19T14:14:30.588Z,3.80
2023-01-19T14:16:57.267Z,3.70
2023-01-19T14:19:24.294Z,3.80
2023-01-19T14:22:03.857Z,4.80
2023-01-19T14:24:33.096Z,5.80
2023-01-19T14:27:19.207Z,5.70
2023-01-19T14:29:48.329Z,5.80
2023-01-19T14:32:16.879Z,6.50
2023-01-19T14:35:06.678Z,7.00
2023-01-19T14:37:37.091Z,7.20
2023-01-19T14:40:21.055Z,7.40
2023-01-19T14:42:57.984Z,7.30
2023-01-19T14:45:39.286Z,6.90
2023-01-19T14:48:11.914Z,6.60
2023-01-19T14:50:51.046Z,6.50
2023-01-19T14:53:29.792Z,6.70
2023-01-19T14:56:05.136Z,6.70
2023-01-19T14:58:34.056Z,7.00
2023-01-19T15:01:01.065Z,7.40
2023-01-19T15:03:43.474Z,7.50
2023-01-19T15:06:19.973Z,7.30
2023-01-19T15:08:48.770Z,6.80
2023-01-19T15:11:32.780Z,6.30
2023-01-19T15:14:05.399Z,6.40
2023-01-19T15:16:50.514Z,6.40
2023-01-19T15:19:17.886Z,6.60
2023-01-19T15:21:46.759Z,6.50
2023-01-19T15:24:15.894Z,6.30
2023-01-19T15:26:46.468Z,6.40
2023-01-19T15:29:24.948Z,6.40
2023-01-19T15:31:52.596Z,6.20
2023-01-19T15:34:21.574Z,6.10
2023-01-19T15:36:50.597Z,5.90
2023-01-19T15:39:17.331Z,5.40
2023-01-19T15:41:44.079Z,5.00
2023-01-19T15:44:11.131Z,4.70
2023-01-19T15:46:38.093Z,4.30
2023-01-19T15:49:07.667Z,4.10
2023-01-19T15:51:34.470Z,3.90
2023-01-19T15:54:01.325Z,3.70
2023-01-19T15:56:31.752Z,3.60
2023-01-19T15:58:59.191Z,3.50
2023-01-19T16:01:35.006Z,3.30
2023-01-19T16:04:04.469Z,3.20
2023-01-19T16:06:32.284Z,3.10
2023-01-19T16:09:01.016Z,2.90
2023-01-19T16:11:32.014Z,2.90
2023-01-19T16:13:58.846Z,2.80
2023-01-19T16:16:31.394Z,2.70
2023-01-19T16:19:03.094Z,2.60
2023-01-19T16:21:29.816Z,2.40
2023-01-19T16:23:56.615Z,2.30
2023-01-19T16:26:26.537Z,2.20
2023-01-19T16:28:56.998Z,2.20
2023-01-19T16:31:26.691Z,2.10
2023-01-19T16:33:53.497Z,2.00
2023-01-19T16:36:28.972Z,2.00
2023-01-19T16:39:00.069Z,1.90
2023-01-19T16:41:27.057Z,1.90
2023-01-19T16:43:55.545Z,1.80
2023-01-19T16:46:25.635Z,1.80
2023-01-19T16:48:53.136Z,1.70
2023-01-19T16:51:22.510Z,1.80
2023-01-19T16:53:52.398Z,1.70
2023-01-19T16:56:19.419Z,1.70
2023-01-19T16:58:46.339Z,1.70
2023-01-19T17:01:17.759Z,1.70
2023-01-19T17:03:46.284Z,1.70
2023-01-19T17:06:15.356Z,1.70
2023-01-19T17:08:42.077Z,1.70
2023-01-19T17:11:12.894Z,1.70
2023-01-19T17:13:42.311Z,1.70
2023-01-19T17:16:09.648Z,1.70
2023-01-19T17:18:37.964Z,1.60
2023-01-19T17:21:07.636Z,1.50
2023-01-19T17:23:36.281Z,1.50
2023-01-19T17:26:04.423Z,1.40
2023-01-19T17:28:31.306Z,1.40
2023-01-19T17:31:14.250Z,1.40
2023-01-19T17:33:46.425Z,1.40
2023-01-19T17:36:15.690Z,1.30
2023-01-19T17:38:42.506Z,1.30
2023-01-19T17:41:14.216Z,1.30
2023-01-19T17:43:41.267Z,1.30
2023-01-19T17:46:08.579Z,1.30
2023-01-19T17:48:35.315Z,1.30
2023-01-19T17:51:08.319Z,1.20
2023-01-19T17:53:36.956Z,1.30
2023-01-19T17:56:05.610Z,1.30
2023-01-19T17:58:34.201Z,1.30
2023-01-19T18:01:12.452Z,1.40
2023-01-19T18:03:42.186Z,1.30
2023-01-19T18:06:09.814Z,1.30
2023-01-19T18:08:40.555Z,1.30
2023-01-19T18:11:07.891Z,1.30
2023-01-19T18:13:37.828Z,1.30
2023-01-19T18:16:07.846Z,1.30
2023-01-19T18:18:35.334Z,1.30
2023-01-19T18:21:04.319Z,1.30
2023-01-19T18:23:31.223Z,1.30
2023-01-19T18:26:02.889Z,1.30
2023-01-19T18:28:30.544Z,1.30
2023-01-19T18:30:57.712Z,1.30
2023-01-19T18:33:25.076Z,1.30
2023-01-19T18:35:52.144Z,1.30
2023-01-19T18:38:18.972Z,1.40
2023-01-19T18:40:46.562Z,1.40
2023-01-19T18:43:13.716Z,1.40
2023-01-19T18:45:41.982Z,1.40
2023-01-19T18:48:11.373Z,1.50
2023-01-19T18:50:38.412Z,1.50
2023-01-19T18:53:05.607Z,1.50
2023-01-19T18:55:36.255Z,1.50
2023-01-19T18:58:05.320Z,1.50
2023-01-19T19:00:34.660Z,1.50
2023-01-19T19:03:01.495Z,1.50
2023-01-19T19:05:33.023Z,1.50
2023-01-19T19:07:59.746Z,1.50
2023-01-19T19:10:26.464Z,1.50
2023-01-19T19:12:55.281Z,1.50
2023-01-19T19:15:22.200Z,1.50
2023-01-19T19:17:51.385Z,1.60
2023-01-19T19:20:23.385Z,1.60
2023-01-19T19:22:52.690Z,1.60
2023-01-19T19:25:21.777Z,1.60
2023-01-19T19:27:52.148Z,1.70
2023-01-19T19:30:20.754Z,1.70
2023-01-19T19:32:57.255Z,1.70
2023-01-19T19:35:24.467Z,1.70
2023-01-19T19:37:51.615Z,1.70
2023-01-19T19:40:18.616Z,1.70
2023-01-19T19:42:45.380Z,1.70
2023-01-19T19:45:12.513Z,1.70
2023-01-19T19:47:42.979Z,1.60
2023-01-19T19:50:11.572Z,1.60
2023-01-19T19:52:41.909Z,1.70
2023-01-19T19:55:10.165Z,1.70
2023-01-19T19:57:37.251Z,1.70
2023-01-19T20:00:07.756Z,1.70
2023-01-19T20:02:34.470Z,1.70
2023-01-19T20:05:03.803Z,1.70
2023-01-19T20:07:30.535Z,1.80
2023-01-19T20:09:57.371Z,1.80
2023-01-19T20:12:24.127Z,1.90
2023-01-19T20:14:50.834Z,1.90
2023-01-19T20:17:18.004Z,1.90
2023-01-19T20:19:48.945Z,1.90
2023-01-19T20:22:16.124Z,2.00
2023-01-19T20:24:42.874Z,2.00
2023-01-19T20:27:09.564Z,2.00
2023-01-19T20:29:36.246Z,2.00
2023-01-19T20:32:05.496Z,2.00
2023-01-19T20:34:35.624Z,1.90
2023-01-19T20:37:04.628Z,1.90
2023-01-19T20:39:33.421Z,1.90
2023-01-19T20:42:02.902Z,1.80
2023-01-19T20:44:30.271Z,1.80
2023-01-19T20:46:59.512Z,1.90
2023-01-19T20:49:26.384Z,1.90
2023-01-19T20:51:53.541Z,1.90
2023-01-19T20:54:24.487Z,1.90
2023-01-19T20:56:51.300Z,1.90
2023-01-19T20:59:18.475Z,1.90
2023-01-19T21:01:48.454Z,1.80
2023-01-19T21:04:19.806Z,1.80
2023-01-19T21:06:46.700Z,1.90
2023-01-19T21:09:13.489Z,1.80
2023-01-19T21:11:42.627Z,1.80
2023-01-19T21:14:09.628Z,1.80
2023-01-19T21:16:36.791Z,1.80
2023-01-19T21:19:04.639Z,1.80
2023-01-19T21:21:32.103Z,1.80
2023-01-19T21:24:03.401Z,1.70
2023-01-19T21:26:30.464Z,1.80
2023-01-19T21:28:58.659Z,1.80
2023-01-19T21:31:27.750Z,1.70
2023-01-19T21:33:55.200Z,1.70
2023-01-19T21:36:22.579Z,1.80
2023-01-19T21:39:00.354Z,1.80
2023-01-19T21:41:35.896Z,1.80
2023-01-19T21:44:02.899Z,1.80
2023-01-19T21:46:33.520Z,1.80
2023-01-19T21:49:02.535Z,1.80
2023-01-19T21:51:33.342Z,1.80
2023-01-19T21:54:02.524Z,1.80
2023-01-19T21:56:30.765Z,1.80
2023-01-19T21:58:58.211Z,1.80
2023-01-19T22:01:25.135Z,1.80
2023-01-19T22:03:56.808Z,1.80
2023-01-19T22:06:26.654Z,1.90
2023-01-19T22:08:54.359Z,1.80
2023-01-19T22:11:21.644Z,1.80
2023-01-19T22:13:48.660Z,1.80
2023-01-19T22:16:17.895Z,1.80
2023-01-19T22:18:49.139Z,1.80
2023-01-19T22:21:18.308Z,1.80
2023-01-19T22:23:53.232Z,1.80
2023-01-19T22:26:19.957Z,1.90
2023-01-19T22:28:47.033Z,1.80
2023-01-19T22:31:18.490Z,1.90
2023-01-19T22:33:49.008Z,1.90
2023-01-19T22:36:17.243Z,1.90
2023-01-19T22:38:47.225Z,1.90
2023-01-19T22:41:19.661Z,1.90
2023-01-19T22:43:52.679Z,1.90
2023-01-19T22:46:26.715Z,1.80
2023-01-19T22:48:56.793Z,1.80
2023-01-19T22:51:24.844Z,1.80
2023-01-19T22:53:51.987Z,1.80
2023-01-19T22:56:29.452Z,1.80
2023-01-19T22:58:57.125Z,1.80
2023-01-19T23:01:35.662Z,1.80
2023-01-19T23:04:06.730Z,1.80
2023-01-19T23:06:36.438Z,1.70
2023-01-19T23:09:06.595Z,1.70
2023-01-19T23:11:39.243Z,1.70
2023-01-19T23:14:09.592Z,1.70
2023-01-19T23:16:36.586Z,1.60
2023-01-19T23:19:04.274Z,1.70
2023-01-19T23:21:32.472Z,1.60
2023-01-19T23:24:01.235Z,1.60
2023-01-19T23:26:28.892Z,1.60
2023-01-19T23:28:57.865Z,1.70
2023-01-19T23:31:27.270Z,1.60
2023-01-19T23:33:59.826Z,1.70
2023-01-19T23:36:28.911Z,1.60
2023-01-19T23:39:00.939Z,1.60
2023-01-19T23:41:30.239Z,1.60
2023-01-19T23:43:56.982Z,1.50
2023-01-19T23:46:23.858Z,1.50
2023-01-19T23:48:50.809Z,1.40
2023-01-19T23:51:26.313Z,1.30
2023-01-19T23:53:53.552Z,1.30
2023-01-19T23:56:23.059Z,1.30
2023-01-19T23:59:01.700Z,1.20
